sensor_id;sensor_type;location;lat;lon;timestamp;P1;durP1;ratioP1;P2;durP2;ratioP2
52041;SDS011;38052;45.944;13.624;2023-07-13T00:01:58;13.35;;;8.95;;
52041;SDS011;38052;45.944;13.624;2023-07-13T00:04:24;9.35;;;3.45;;
52041;SDS011;38052;45.944;13.624;2023-07-13T00:06:51;17.80;;;7.05;;
52041;SDS011;38052;45.944;13.624;2023-07-13T00:09:17;11.63;;;7.03;;
52041;SDS011;38052;45.944;13.624;2023-07-13T00:11:43;10.38;;;5.22;;
52041;SDS011;38052;45.944;13.624;2023-07-13T00:14:12;10.32;;;4.22;;
52041;SDS011;38052;45.944;13.624;2023-07-13T00:16:40;17.80;;;8.52;;
52041;SDS011;38052;45.944;13.624;2023-07-13T00:19:08;5.95;;;4.18;;
52041;SDS011;38052;45.944;13.624;2023-07-13T00:21:35;10.43;;;5.82;;
52041;SDS011;38052;45.944;13.624;2023-07-13T00:24:02;10.05;;;4.22;;
52041;SDS011;38052;45.944;13.624;2023-07-13T00:26:28;14.23;;;4.18;;
52041;SDS011;38052;45.944;13.624;2023-07-13T00:28:54;9.70;;;1.90;;
52041;SDS011;38052;45.944;13.624;2023-07-13T00:31:20;9.15;;;1.88;;
52041;SDS011;38052;45.944;13.624;2023-07-13T00:33:46;7.68;;;1.70;;
52041;SDS011;38052;45.944;13.624;2023-07-13T00:36:12;8.32;;;1.33;;
52041;SDS011;38052;45.944;13.624;2023-07-13T00:38:39;7.93;;;1.60;;
52041;SDS011;38052;45.944;13.624;2023-07-13T00:41:05;9.77;;;1.77;;
52041;SDS011;38052;45.944;13.624;2023-07-13T00:43:31;7.82;;;2.53;;
52041;SDS011;38052;45.944;13.624;2023-07-13T00:48:30;6.32;;;1.73;;
52041;SDS011;38052;45.944;13.624;2023-07-13T00:50:57;5.43;;;1.50;;
52041;SDS011;38052;45.944;13.624;2023-07-13T00:53:25;3.33;;;1.40;;
52041;SDS011;38052;45.944;13.624;2023-07-13T00:55:53;5.10;;;1.95;;
52041;SDS011;38052;45.944;13.624;2023-07-13T00:58:20;6.65;;;2.40;;
52041;SDS011;38052;45.944;13.624;2023-07-13T01:00:47;6.82;;;1.95;;
52041;SDS011;38052;45.944;13.624;2023-07-13T01:03:15;4.10;;;1.00;;
52041;SDS011;38052;45.944;13.624;2023-07-13T01:05:42;6.88;;;1.73;;
52041;SDS011;38052;45.944;13.624;2023-07-13T01:08:09;9.68;;;1.80;;
52041;SDS011;38052;45.944;13.624;2023-07-13T01:10:35;8.48;;;2.88;;
52041;SDS011;38052;45.944;13.624;2023-07-13T01:13:08;6.30;;;1.90;;
52041;SDS011;38052;45.944;13.624;2023-07-13T01:15:36;6.65;;;3.30;;
52041;SDS011;38052;45.944;13.624;2023-07-13T01:18:04;7.03;;;2.72;;
52041;SDS011;38052;45.944;13.624;2023-07-13T01:20:31;6.88;;;2.22;;
52041;SDS011;38052;45.944;13.624;2023-07-13T01:23:02;11.20;;;2.75;;
52041;SDS011;38052;45.944;13.624;2023-07-13T01:25:29;5.93;;;2.22;;
52041;SDS011;38052;45.944;13.624;2023-07-13T01:27:56;3.58;;;2.45;;
52041;SDS011;38052;45.944;13.624;2023-07-13T01:30:22;4.78;;;1.58;;
52041;SDS011;38052;45.944;13.624;2023-07-13T01:32:49;4.72;;;2.33;;
52041;SDS011;38052;45.944;13.624;2023-07-13T01:35:15;5.50;;;1.90;;
52041;SDS011;38052;45.944;13.624;2023-07-13T01:37:42;4.63;;;2.05;;
52041;SDS011;38052;45.944;13.624;2023-07-13T01:40:10;6.05;;;2.17;;
52041;SDS011;38052;45.944;13.624;2023-07-13T01:42:37;8.52;;;2.38;;
52041;SDS011;38052;45.944;13.624;2023-07-13T01:45:03;4.03;;;1.92;;
52041;SDS011;38052;45.944;13.624;2023-07-13T01:47:29;5.20;;;1.88;;
52041;SDS011;38052;45.944;13.624;2023-07-13T01:49:56;5.95;;;1.75;;
52041;SDS011;38052;45.944;13.624;2023-07-13T01:52:22;4.07;;;1.73;;
52041;SDS011;38052;45.944;13.624;2023-07-13T01:54:49;4.82;;;1.40;;
52041;SDS011;38052;45.944;13.624;2023-07-13T01:57:16;5.78;;;1.35;;
52041;SDS011;38052;45.944;13.624;2023-07-13T01:59:42;5.10;;;1.65;;
52041;SDS011;38052;45.944;13.624;2023-07-13T02:02:09;4.90;;;1.20;;
52041;SDS011;38052;45.944;13.624;2023-07-13T02:04:35;4.15;;;1.52;;
52041;SDS011;38052;45.944;13.624;2023-07-13T02:07:02;9.40;;;2.20;;
52041;SDS011;38052;45.944;13.624;2023-07-13T02:09:28;4.43;;;1.35;;
52041;SDS011;38052;45.944;13.624;2023-07-13T02:11:56;3.47;;;1.50;;
52041;SDS011;38052;45.944;13.624;2023-07-13T02:14:23;5.35;;;1.58;;
52041;SDS011;38052;45.944;13.624;2023-07-13T02:16:49;4.22;;;1.70;;
52041;SDS011;38052;45.944;13.624;2023-07-13T02:19:15;4.63;;;1.45;;
52041;SDS011;38052;45.944;13.624;2023-07-13T02:21:42;5.43;;;1.80;;
52041;SDS011;38052;45.944;13.624;2023-07-13T02:24:09;10.40;;;2.40;;
52041;SDS011;38052;45.944;13.624;2023-07-13T02:26:40;4.20;;;1.65;;
52041;SDS011;38052;45.944;13.624;2023-07-13T02:29:06;7.18;;;2.05;;
52041;SDS011;38052;45.944;13.624;2023-07-13T02:31:33;3.17;;;1.98;;
52041;SDS011;38052;45.944;13.624;2023-07-13T02:34:00;4.50;;;2.17;;
52041;SDS011;38052;45.944;13.624;2023-07-13T02:36:26;3.42;;;1.80;;
52041;SDS011;38052;45.944;13.624;2023-07-13T02:38:53;5.97;;;1.80;;
52041;SDS011;38052;45.944;13.624;2023-07-13T02:41:20;5.18;;;1.67;;
52041;SDS011;38052;45.944;13.624;2023-07-13T02:43:47;4.45;;;1.70;;
52041;SDS011;38052;45.944;13.624;2023-07-13T02:46:14;4.60;;;1.75;;
52041;SDS011;38052;45.944;13.624;2023-07-13T02:48:41;6.30;;;1.75;;
52041;SDS011;38052;45.944;13.624;2023-07-13T02:51:07;4.35;;;1.77;;
52041;SDS011;38052;45.944;13.624;2023-07-13T02:53:33;7.93;;;2.05;;
52041;SDS011;38052;45.944;13.624;2023-07-13T02:56:01;5.78;;;1.40;;
52041;SDS011;38052;45.944;13.624;2023-07-13T02:58:27;5.07;;;2.00;;
52041;SDS011;38052;45.944;13.624;2023-07-13T03:00:55;3.45;;;2.15;;
52041;SDS011;38052;45.944;13.624;2023-07-13T03:03:21;4.55;;;2.03;;
52041;SDS011;38052;45.944;13.624;2023-07-13T03:05:47;5.35;;;1.75;;
52041;SDS011;38052;45.944;13.624;2023-07-13T03:08:15;3.95;;;2.15;;
52041;SDS011;38052;45.944;13.624;2023-07-13T03:10:41;8.70;;;2.58;;
52041;SDS011;38052;45.944;13.624;2023-07-13T03:13:08;5.78;;;2.42;;
52041;SDS011;38052;45.944;13.624;2023-07-13T03:15:34;2.90;;;1.50;;
52041;SDS011;38052;45.944;13.624;2023-07-13T03:18:01;3.90;;;2.35;;
52041;SDS011;38052;45.944;13.624;2023-07-13T03:20:28;4.95;;;2.17;;
52041;SDS011;38052;45.944;13.624;2023-07-13T03:22:55;5.28;;;2.40;;
52041;SDS011;38052;45.944;13.624;2023-07-13T03:25:22;11.90;;;2.95;;
52041;SDS011;38052;45.944;13.624;2023-07-13T03:27:48;5.07;;;2.65;;
52041;SDS011;38052;45.944;13.624;2023-07-13T03:30:15;9.00;;;3.47;;
52041;SDS011;38052;45.944;13.624;2023-07-13T03:32:41;11.10;;;3.30;;
52041;SDS011;38052;45.944;13.624;2023-07-13T03:35:08;5.47;;;3.40;;
52041;SDS011;38052;45.944;13.624;2023-07-13T03:37:35;6.72;;;2.85;;
52041;SDS011;38052;45.944;13.624;2023-07-13T03:40:07;5.30;;;1.70;;
52041;SDS011;38052;45.944;13.624;2023-07-13T03:42:34;8.55;;;1.98;;
52041;SDS011;38052;45.944;13.624;2023-07-13T03:45:01;5.03;;;2.15;;
52041;SDS011;38052;45.944;13.624;2023-07-13T03:47:28;6.10;;;2.08;;
52041;SDS011;38052;45.944;13.624;2023-07-13T03:49:54;7.55;;;2.10;;
52041;SDS011;38052;45.944;13.624;2023-07-13T03:52:21;6.65;;;1.50;;
52041;SDS011;38052;45.944;13.624;2023-07-13T03:54:48;4.03;;;1.25;;
52041;SDS011;38052;45.944;13.624;2023-07-13T03:57:14;3.20;;;1.13;;
52041;SDS011;38052;45.944;13.624;2023-07-13T03:59:41;4.72;;;1.13;;
52041;SDS011;38052;45.944;13.624;2023-07-13T04:02:09;7.18;;;1.58;;
52041;SDS011;38052;45.944;13.624;2023-07-13T04:04:36;4.00;;;0.98;;
52041;SDS011;38052;45.944;13.624;2023-07-13T04:07:03;3.80;;;1.30;;
52041;SDS011;38052;45.944;13.624;2023-07-13T04:09:30;8.95;;;1.73;;
52041;SDS011;38052;45.944;13.624;2023-07-13T04:11:57;4.20;;;1.15;;
52041;SDS011;38052;45.944;13.624;2023-07-13T04:14:23;10.20;;;1.30;;
52041;SDS011;38052;45.944;13.624;2023-07-13T04:16:50;4.65;;;1.13;;
52041;SDS011;38052;45.944;13.624;2023-07-13T04:19:16;5.72;;;1.30;;
52041;SDS011;38052;45.944;13.624;2023-07-13T04:21:43;6.53;;;1.77;;
52041;SDS011;38052;45.944;13.624;2023-07-13T04:24:10;5.60;;;1.05;;
52041;SDS011;38052;45.944;13.624;2023-07-13T04:26:37;3.33;;;1.30;;
52041;SDS011;38052;45.944;13.624;2023-07-13T04:29:03;4.80;;;1.05;;
52041;SDS011;38052;45.944;13.624;2023-07-13T04:31:30;4.30;;;1.50;;
52041;SDS011;38052;45.944;13.624;2023-07-13T04:33:57;7.35;;;1.77;;
52041;SDS011;38052;45.944;13.624;2023-07-13T04:36:23;4.82;;;1.08;;
52041;SDS011;38052;45.944;13.624;2023-07-13T04:38:52;4.00;;;1.02;;
52041;SDS011;38052;45.944;13.624;2023-07-13T04:41:19;4.85;;;1.73;;
52041;SDS011;38052;45.944;13.624;2023-07-13T04:43:46;2.88;;;1.48;;
52041;SDS011;38052;45.944;13.624;2023-07-13T04:46:13;5.38;;;1.30;;
52041;SDS011;38052;45.944;13.624;2023-07-13T04:48:39;3.00;;;1.10;;
52041;SDS011;38052;45.944;13.624;2023-07-13T04:51:06;8.07;;;1.10;;
52041;SDS011;38052;45.944;13.624;2023-07-13T04:53:33;3.55;;;1.20;;
52041;SDS011;38052;45.944;13.624;2023-07-13T04:55:59;4.97;;;1.42;;
52041;SDS011;38052;45.944;13.624;2023-07-13T04:58:25;4.07;;;1.55;;
52041;SDS011;38052;45.944;13.624;2023-07-13T05:00:52;3.83;;;1.27;;
52041;SDS011;38052;45.944;13.624;2023-07-13T05:03:18;6.68;;;1.88;;
52041;SDS011;38052;45.944;13.624;2023-07-13T05:05:54;6.80;;;2.15;;
52041;SDS011;38052;45.944;13.624;2023-07-13T05:08:20;6.47;;;1.63;;
52041;SDS011;38052;45.944;13.624;2023-07-13T05:10:46;4.03;;;1.15;;
52041;SDS011;38052;45.944;13.624;2023-07-13T05:13:13;4.93;;;1.33;;
52041;SDS011;38052;45.944;13.624;2023-07-13T05:15:39;7.47;;;1.55;;
52041;SDS011;38052;45.944;13.624;2023-07-13T05:18:07;4.63;;;1.33;;
52041;SDS011;38052;45.944;13.624;2023-07-13T05:20:33;5.68;;;1.05;;
52041;SDS011;38052;45.944;13.624;2023-07-13T05:23:00;3.33;;;1.25;;
52041;SDS011;38052;45.944;13.624;2023-07-13T05:25:26;4.15;;;1.08;;
52041;SDS011;38052;45.944;13.624;2023-07-13T05:27:53;2.80;;;1.45;;
52041;SDS011;38052;45.944;13.624;2023-07-13T05:30:19;5.28;;;0.88;;
52041;SDS011;38052;45.944;13.624;2023-07-13T05:32:45;1.95;;;1.10;;
52041;SDS011;38052;45.944;13.624;2023-07-13T05:35:12;7.20;;;2.15;;
52041;SDS011;38052;45.944;13.624;2023-07-13T05:37:38;6.45;;;1.70;;
52041;SDS011;38052;45.944;13.624;2023-07-13T05:40:05;5.00;;;1.35;;
52041;SDS011;38052;45.944;13.624;2023-07-13T05:42:32;7.47;;;2.38;;
52041;SDS011;38052;45.944;13.624;2023-07-13T05:44:58;6.00;;;1.55;;
52041;SDS011;38052;45.944;13.624;2023-07-13T05:47:25;1.90;;;0.93;;
52041;SDS011;38052;45.944;13.624;2023-07-13T05:49:51;4.28;;;1.40;;
52041;SDS011;38052;45.944;13.624;2023-07-13T05:52:17;4.70;;;1.35;;
52041;SDS011;38052;45.944;13.624;2023-07-13T05:54:43;10.05;;;1.50;;
52041;SDS011;38052;45.944;13.624;2023-07-13T05:57:09;4.75;;;1.73;;
52041;SDS011;38052;45.944;13.624;2023-07-13T05:59:36;5.35;;;1.60;;
52041;SDS011;38052;45.944;13.624;2023-07-13T06:02:02;12.40;;;2.20;;
52041;SDS011;38052;45.944;13.624;2023-07-13T06:04:29;4.07;;;1.55;;
52041;SDS011;38052;45.944;13.624;2023-07-13T06:06:55;9.73;;;2.38;;
52041;SDS011;38052;45.944;13.624;2023-07-13T06:09:22;4.15;;;1.90;;
52041;SDS011;38052;45.944;13.624;2023-07-13T06:11:49;7.18;;;1.73;;
52041;SDS011;38052;45.944;13.624;2023-07-13T06:14:15;4.95;;;1.02;;
52041;SDS011;38052;45.944;13.624;2023-07-13T06:16:42;5.72;;;1.65;;
52041;SDS011;38052;45.944;13.624;2023-07-13T06:19:08;7.45;;;1.73;;
52041;SDS011;38052;45.944;13.624;2023-07-13T06:21:35;4.43;;;1.30;;
52041;SDS011;38052;45.944;13.624;2023-07-13T06:24:01;8.52;;;2.35;;
52041;SDS011;38052;45.944;13.624;2023-07-13T06:26:28;8.60;;;1.77;;
52041;SDS011;38052;45.944;13.624;2023-07-13T06:28:54;13.38;;;2.17;;
52041;SDS011;38052;45.944;13.624;2023-07-13T06:31:21;5.22;;;1.15;;
52041;SDS011;38052;45.944;13.624;2023-07-13T06:33:47;9.38;;;2.20;;
52041;SDS011;38052;45.944;13.624;2023-07-13T06:36:13;7.32;;;1.45;;
52041;SDS011;38052;45.944;13.624;2023-07-13T06:38:40;7.05;;;1.52;;
52041;SDS011;38052;45.944;13.624;2023-07-13T06:41:07;5.70;;;1.65;;
52041;SDS011;38052;45.944;13.624;2023-07-13T06:43:34;9.48;;;1.38;;
52041;SDS011;38052;45.944;13.624;2023-07-13T06:46:00;6.97;;;2.22;;
52041;SDS011;38052;45.944;13.624;2023-07-13T06:48:27;4.85;;;1.90;;
52041;SDS011;38052;45.944;13.624;2023-07-13T06:50:53;4.53;;;1.92;;
52041;SDS011;38052;45.944;13.624;2023-07-13T06:53:19;4.47;;;1.33;;
52041;SDS011;38052;45.944;13.624;2023-07-13T06:55:46;5.57;;;1.30;;
52041;SDS011;38052;45.944;13.624;2023-07-13T06:58:13;5.18;;;1.48;;
52041;SDS011;38052;45.944;13.624;2023-07-13T07:00:39;7.43;;;1.45;;
52041;SDS011;38052;45.944;13.624;2023-07-13T07:03:06;8.20;;;1.73;;
52041;SDS011;38052;45.944;13.624;2023-07-13T07:05:32;4.00;;;2.08;;
52041;SDS011;38052;45.944;13.624;2023-07-13T07:07:59;9.05;;;2.15;;
52041;SDS011;38052;45.944;13.624;2023-07-13T07:10:26;3.78;;;2.28;;
52041;SDS011;38052;45.944;13.624;2023-07-13T07:12:52;10.25;;;2.38;;
52041;SDS011;38052;45.944;13.624;2023-07-13T07:15:19;6.05;;;2.50;;
52041;SDS011;38052;45.944;13.624;2023-07-13T07:17:45;5.65;;;1.83;;
52041;SDS011;38052;45.944;13.624;2023-07-13T07:20:12;5.22;;;1.30;;
52041;SDS011;38052;45.944;13.624;2023-07-13T07:22:38;4.28;;;1.40;;
52041;SDS011;38052;45.944;13.624;2023-07-13T07:25:05;7.22;;;1.40;;
52041;SDS011;38052;45.944;13.624;2023-07-13T07:27:32;3.55;;;1.30;;
52041;SDS011;38052;45.944;13.624;2023-07-13T07:29:58;5.43;;;1.83;;
52041;SDS011;38052;45.944;13.624;2023-07-13T07:32:25;3.30;;;1.33;;
52041;SDS011;38052;45.944;13.624;2023-07-13T07:34:52;6.43;;;1.50;;
52041;SDS011;38052;45.944;13.624;2023-07-13T07:37:19;8.60;;;2.42;;
52041;SDS011;38052;45.944;13.624;2023-07-13T07:39:45;5.97;;;1.95;;
52041;SDS011;38052;45.944;13.624;2023-07-13T07:42:12;4.55;;;2.15;;
52041;SDS011;38052;45.944;13.624;2023-07-13T07:44:39;3.17;;;1.85;;
52041;SDS011;38052;45.944;13.624;2023-07-13T07:47:07;6.95;;;2.00;;
52041;SDS011;38052;45.944;13.624;2023-07-13T07:49:34;5.95;;;2.22;;
52041;SDS011;38052;45.944;13.624;2023-07-13T07:52:00;8.93;;;1.85;;
52041;SDS011;38052;45.944;13.624;2023-07-13T07:54:27;5.90;;;1.63;;
52041;SDS011;38052;45.944;13.624;2023-07-13T07:56:53;8.73;;;2.10;;
52041;SDS011;38052;45.944;13.624;2023-07-13T07:59:20;4.60;;;1.98;;
52041;SDS011;38052;45.944;13.624;2023-07-13T08:01:47;7.35;;;2.03;;
52041;SDS011;38052;45.944;13.624;2023-07-13T08:04:15;5.10;;;1.75;;
52041;SDS011;38052;45.944;13.624;2023-07-13T08:06:41;10.07;;;2.63;;
52041;SDS011;38052;45.944;13.624;2023-07-13T08:09:08;9.80;;;2.17;;
52041;SDS011;38052;45.944;13.624;2023-07-13T08:11:34;6.10;;;1.95;;
52041;SDS011;38052;45.944;13.624;2023-07-13T08:14:00;5.00;;;1.85;;
52041;SDS011;38052;45.944;13.624;2023-07-13T08:16:27;7.43;;;1.95;;
52041;SDS011;38052;45.944;13.624;2023-07-13T08:18:53;10.10;;;2.20;;
52041;SDS011;38052;45.944;13.624;2023-07-13T08:21:20;5.38;;;2.00;;
52041;SDS011;38052;45.944;13.624;2023-07-13T08:23:47;8.82;;;2.92;;
52041;SDS011;38052;45.944;13.624;2023-07-13T08:26:13;11.57;;;2.20;;
52041;SDS011;38052;45.944;13.624;2023-07-13T08:28:39;8.95;;;2.67;;
52041;SDS011;38052;45.944;13.624;2023-07-13T08:31:06;6.80;;;2.03;;
52041;SDS011;38052;45.944;13.624;2023-07-13T08:33:33;7.53;;;2.72;;
52041;SDS011;38052;45.944;13.624;2023-07-13T08:36:00;6.63;;;2.10;;
52041;SDS011;38052;45.944;13.624;2023-07-13T08:38:26;7.53;;;3.08;;
52041;SDS011;38052;45.944;13.624;2023-07-13T08:40:54;5.80;;;2.38;;
52041;SDS011;38052;45.944;13.624;2023-07-13T08:43:23;7.43;;;2.10;;
52041;SDS011;38052;45.944;13.624;2023-07-13T08:46:04;4.75;;;2.05;;
52041;SDS011;38052;45.944;13.624;2023-07-13T08:48:53;6.97;;;2.42;;
52041;SDS011;38052;45.944;13.624;2023-07-13T08:54:01;6.78;;;2.80;;
52041;SDS011;38052;45.944;13.624;2023-07-13T08:56:29;17.95;;;3.60;;
52041;SDS011;38052;45.944;13.624;2023-07-13T08:58:56;5.35;;;2.47;;
52041;SDS011;38052;45.944;13.624;2023-07-13T09:04:12;12.73;;;3.42;;
52041;SDS011;38052;45.944;13.624;2023-07-13T09:09:16;8.63;;;2.53;;
52041;SDS011;38052;45.944;13.624;2023-07-13T09:16:45;6.85;;;3.28;;
52041;SDS011;38052;45.944;13.624;2023-07-13T09:19:14;7.38;;;2.90;;
52041;SDS011;38052;45.944;13.624;2023-07-13T09:21:42;12.38;;;3.05;;
52041;SDS011;38052;45.944;13.624;2023-07-13T09:26:56;7.55;;;2.85;;
52041;SDS011;38052;45.944;13.624;2023-07-13T09:29:30;8.88;;;2.95;;
52041;SDS011;38052;45.944;13.624;2023-07-13T09:32:01;11.52;;;3.25;;
52041;SDS011;38052;45.944;13.624;2023-07-13T09:34:27;7.05;;;2.15;;
52041;SDS011;38052;45.944;13.624;2023-07-13T09:36:55;9.27;;;2.90;;
52041;SDS011;38052;45.944;13.624;2023-07-13T09:39:26;11.48;;;3.17;;
52041;SDS011;38052;45.944;13.624;2023-07-13T09:44:36;6.93;;;2.95;;
52041;SDS011;38052;45.944;13.624;2023-07-13T09:47:02;8.63;;;3.20;;
52041;SDS011;38052;45.944;13.624;2023-07-13T09:49:36;7.45;;;2.63;;
52041;SDS011;38052;45.944;13.624;2023-07-13T09:52:04;7.82;;;3.25;;
52041;SDS011;38052;45.944;13.624;2023-07-13T09:54:33;12.20;;;3.33;;
52041;SDS011;38052;45.944;13.624;2023-07-13T09:56:59;8.15;;;3.17;;
52041;SDS011;38052;45.944;13.624;2023-07-13T09:59:29;12.35;;;3.75;;
52041;SDS011;38052;45.944;13.624;2023-07-13T10:01:56;13.43;;;3.55;;
52041;SDS011;38052;45.944;13.624;2023-07-13T10:04:27;12.15;;;3.13;;
52041;SDS011;38052;45.944;13.624;2023-07-13T10:07:04;5.70;;;2.70;;
52041;SDS011;38052;45.944;13.624;2023-07-13T10:09:31;5.60;;;3.08;;
52041;SDS011;38052;45.944;13.624;2023-07-13T10:11:57;10.07;;;3.33;;
52041;SDS011;38052;45.944;13.624;2023-07-13T10:14:24;7.60;;;3.28;;
52041;SDS011;38052;45.944;13.624;2023-07-13T10:16:58;9.23;;;2.72;;
52041;SDS011;38052;45.944;13.624;2023-07-13T10:19:27;9.82;;;2.90;;
52041;SDS011;38052;45.944;13.624;2023-07-13T10:22:02;7.20;;;2.78;;
52041;SDS011;38052;45.944;13.624;2023-07-13T10:24:33;9.52;;;3.80;;
52041;SDS011;38052;45.944;13.624;2023-07-13T10:29:48;5.80;;;3.33;;
52041;SDS011;38052;45.944;13.624;2023-07-13T10:32:18;8.88;;;3.88;;
52041;SDS011;38052;45.944;13.624;2023-07-13T10:34:45;6.55;;;3.05;;
52041;SDS011;38052;45.944;13.624;2023-07-13T10:37:16;8.60;;;3.53;;
52041;SDS011;38052;45.944;13.624;2023-07-13T10:39:45;6.63;;;3.58;;
52041;SDS011;38052;45.944;13.624;2023-07-13T10:42:15;11.65;;;3.35;;
52041;SDS011;38052;45.944;13.624;2023-07-13T10:44:43;6.25;;;2.70;;
52041;SDS011;38052;45.944;13.624;2023-07-13T10:47:14;10.55;;;3.78;;
52041;SDS011;38052;45.944;13.624;2023-07-13T10:49:41;7.80;;;3.47;;
52041;SDS011;38052;45.944;13.624;2023-07-13T10:54:53;5.63;;;3.83;;
52041;SDS011;38052;45.944;13.624;2023-07-13T10:57:20;12.77;;;4.43;;
52041;SDS011;38052;45.944;13.624;2023-07-13T10:59:48;7.18;;;4.88;;
52041;SDS011;38052;45.944;13.624;2023-07-13T11:02:23;9.55;;;5.13;;
52041;SDS011;38052;45.944;13.624;2023-07-13T11:04:51;9.48;;;5.50;;
52041;SDS011;38052;45.944;13.624;2023-07-13T11:07:29;15.38;;;5.15;;
52041;SDS011;38052;45.944;13.624;2023-07-13T11:09:58;15.88;;;6.18;;
52041;SDS011;38052;45.944;13.624;2023-07-13T11:18:03;7.80;;;4.78;;
52041;SDS011;38052;45.944;13.624;2023-07-13T11:22:43;7.57;;;4.47;;
52041;SDS011;38052;45.944;13.624;2023-07-13T11:25:29;12.18;;;5.32;;
52041;SDS011;38052;45.944;13.624;2023-07-13T11:31:19;12.50;;;4.38;;
52041;SDS011;38052;45.944;13.624;2023-07-13T11:36:15;9.30;;;4.43;;
52041;SDS011;38052;45.944;13.624;2023-07-13T11:38:43;9.57;;;4.32;;
52041;SDS011;38052;45.944;13.624;2023-07-13T11:41:15;7.50;;;3.85;;
52041;SDS011;38052;45.944;13.624;2023-07-13T11:43:42;9.38;;;3.55;;
52041;SDS011;38052;45.944;13.624;2023-07-13T11:46:13;10.88;;;4.88;;
52041;SDS011;38052;45.944;13.624;2023-07-13T11:48:40;8.43;;;4.47;;
52041;SDS011;38052;45.944;13.624;2023-07-13T11:51:06;14.82;;;4.95;;
52041;SDS011;38052;45.944;13.624;2023-07-13T11:53:37;9.85;;;4.43;;
52041;SDS011;38052;45.944;13.624;2023-07-13T11:56:05;13.75;;;4.72;;
52041;SDS011;38052;45.944;13.624;2023-07-13T11:58:31;11.43;;;4.60;;
52041;SDS011;38052;45.944;13.624;2023-07-13T12:00:59;8.93;;;4.78;;
52041;SDS011;38052;45.944;13.624;2023-07-13T12:03:27;8.45;;;4.20;;
52041;SDS011;38052;45.944;13.624;2023-07-13T12:06:01;10.88;;;4.32;;
52041;SDS011;38052;45.944;13.624;2023-07-13T12:08:28;12.27;;;4.30;;
52041;SDS011;38052;45.944;13.624;2023-07-13T12:11:03;6.60;;;4.93;;
52041;SDS011;38052;45.944;13.624;2023-07-13T12:13:37;9.18;;;4.50;;
52041;SDS011;38052;45.944;13.624;2023-07-13T12:16:11;10.05;;;5.22;;
52041;SDS011;38052;45.944;13.624;2023-07-13T12:18:38;5.68;;;4.07;;
52041;SDS011;38052;45.944;13.624;2023-07-13T12:21:05;14.52;;;5.25;;
52041;SDS011;38052;45.944;13.624;2023-07-13T12:23:33;17.73;;;5.47;;
52041;SDS011;38052;45.944;13.624;2023-07-13T12:26:02;15.43;;;4.83;;
52041;SDS011;38052;45.944;13.624;2023-07-13T12:28:33;9.10;;;5.03;;
52041;SDS011;38052;45.944;13.624;2023-07-13T12:31:00;8.95;;;4.75;;
52041;SDS011;38052;45.944;13.624;2023-07-13T12:33:28;17.40;;;5.85;;
52041;SDS011;38052;45.944;13.624;2023-07-13T12:35:54;9.55;;;5.25;;
52041;SDS011;38052;45.944;13.624;2023-07-13T12:38:24;11.07;;;5.57;;
52041;SDS011;38052;45.944;13.624;2023-07-13T12:40:51;11.35;;;6.25;;
52041;SDS011;38052;45.944;13.624;2023-07-13T12:43:19;13.38;;;5.70;;
52041;SDS011;38052;45.944;13.624;2023-07-13T12:46:03;14.43;;;5.53;;
52041;SDS011;38052;45.944;13.624;2023-07-13T12:48:37;16.75;;;5.50;;
52041;SDS011;38052;45.944;13.624;2023-07-13T12:51:03;9.27;;;6.03;;
52041;SDS011;38052;45.944;13.624;2023-07-13T12:53:30;10.15;;;5.57;;
52041;SDS011;38052;45.944;13.624;2023-07-13T12:56:01;14.02;;;6.15;;
52041;SDS011;38052;45.944;13.624;2023-07-13T12:58:30;18.23;;;5.72;;
52041;SDS011;38052;45.944;13.624;2023-07-13T13:00:58;12.88;;;6.25;;
52041;SDS011;38052;45.944;13.624;2023-07-13T13:03:32;14.68;;;6.53;;
52041;SDS011;38052;45.944;13.624;2023-07-13T13:08:30;12.00;;;5.53;;
52041;SDS011;38052;45.944;13.624;2023-07-13T13:10:56;13.52;;;5.28;;
52041;SDS011;38052;45.944;13.624;2023-07-13T13:13:23;22.05;;;6.38;;
52041;SDS011;38052;45.944;13.624;2023-07-13T13:15:49;13.23;;;6.28;;
52041;SDS011;38052;45.944;13.624;2023-07-13T13:18:16;13.55;;;6.15;;
52041;SDS011;38052;45.944;13.624;2023-07-13T13:20:42;16.00;;;7.07;;
52041;SDS011;38052;45.944;13.624;2023-07-13T13:23:12;19.05;;;5.97;;
52041;SDS011;38052;45.944;13.624;2023-07-13T13:25:44;17.23;;;6.30;;
52041;SDS011;38052;45.944;13.624;2023-07-13T13:28:16;25.15;;;7.45;;
52041;SDS011;38052;45.944;13.624;2023-07-13T13:30:44;19.85;;;7.30;;
52041;SDS011;38052;45.944;13.624;2023-07-13T13:33:11;15.65;;;5.85;;
52041;SDS011;38052;45.944;13.624;2023-07-13T13:35:38;21.38;;;7.03;;
52041;SDS011;38052;45.944;13.624;2023-07-13T13:38:09;15.68;;;6.38;;
52041;SDS011;38052;45.944;13.624;2023-07-13T13:40:37;15.10;;;6.43;;
52041;SDS011;38052;45.944;13.624;2023-07-13T13:43:08;11.63;;;5.63;;
52041;SDS011;38052;45.944;13.624;2023-07-13T13:45:40;17.60;;;7.18;;
52041;SDS011;38052;45.944;13.624;2023-07-13T13:48:12;12.70;;;6.07;;
52041;SDS011;38052;45.944;13.624;2023-07-13T13:50:39;14.80;;;6.55;;
52041;SDS011;38052;45.944;13.624;2023-07-13T13:53:08;17.35;;;6.13;;
52041;SDS011;38052;45.944;13.624;2023-07-13T13:55:36;20.58;;;8.13;;
52041;SDS011;38052;45.944;13.624;2023-07-13T13:58:03;24.35;;;6.70;;
52041;SDS011;38052;45.944;13.624;2023-07-13T14:00:29;17.40;;;6.32;;
52041;SDS011;38052;45.944;13.624;2023-07-13T14:02:56;27.60;;;6.85;;
52041;SDS011;38052;45.944;13.624;2023-07-13T14:05:23;13.98;;;7.32;;
52041;SDS011;38052;45.944;13.624;2023-07-13T14:07:53;16.42;;;6.25;;
52041;SDS011;38052;45.944;13.624;2023-07-13T14:10:20;15.50;;;5.95;;
52041;SDS011;38052;45.944;13.624;2023-07-13T14:12:55;20.30;;;6.25;;
52041;SDS011;38052;45.944;13.624;2023-07-13T14:15:24;14.15;;;6.50;;
52041;SDS011;38052;45.944;13.624;2023-07-13T14:17:51;15.50;;;5.87;;
52041;SDS011;38052;45.944;13.624;2023-07-13T14:20:18;19.45;;;6.93;;
52041;SDS011;38052;45.944;13.624;2023-07-13T14:22:45;11.95;;;5.70;;
52041;SDS011;38052;45.944;13.624;2023-07-13T14:25:11;15.65;;;7.38;;
52041;SDS011;38052;45.944;13.624;2023-07-13T14:27:38;19.35;;;6.68;;
52041;SDS011;38052;45.944;13.624;2023-07-13T14:30:18;11.23;;;5.88;;
52041;SDS011;38052;45.944;13.624;2023-07-13T14:32:45;15.13;;;6.68;;
52041;SDS011;38052;45.944;13.624;2023-07-13T14:35:12;24.02;;;7.82;;
52041;SDS011;38052;45.944;13.624;2023-07-13T14:37:39;12.80;;;5.35;;
52041;SDS011;38052;45.944;13.624;2023-07-13T14:40:16;12.13;;;5.85;;
52041;SDS011;38052;45.944;13.624;2023-07-13T14:42:42;19.17;;;7.15;;
52041;SDS011;38052;45.944;13.624;2023-07-13T14:45:12;17.25;;;7.07;;
52041;SDS011;38052;45.944;13.624;2023-07-13T14:47:39;14.73;;;6.60;;
52041;SDS011;38052;45.944;13.624;2023-07-13T14:50:11;18.25;;;6.15;;
52041;SDS011;38052;45.944;13.624;2023-07-13T14:52:38;18.20;;;6.13;;
52041;SDS011;38052;45.944;13.624;2023-07-13T14:55:08;20.17;;;6.40;;
52041;SDS011;38052;45.944;13.624;2023-07-13T14:57:35;14.10;;;6.55;;
52041;SDS011;38052;45.944;13.624;2023-07-13T15:00:01;13.70;;;5.70;;
52041;SDS011;38052;45.944;13.624;2023-07-13T15:02:29;10.80;;;5.68;;
52041;SDS011;38052;45.944;13.624;2023-07-13T15:04:56;13.43;;;6.00;;
52041;SDS011;38052;45.944;13.624;2023-07-13T15:07:23;13.52;;;5.97;;
52041;SDS011;38052;45.944;13.624;2023-07-13T15:09:50;13.55;;;6.65;;
52041;SDS011;38052;45.944;13.624;2023-07-13T15:12:17;19.10;;;6.07;;
52041;SDS011;38052;45.944;13.624;2023-07-13T15:14:44;15.52;;;7.03;;
52041;SDS011;38052;45.944;13.624;2023-07-13T15:17:52;18.92;;;7.40;;